Time;durP1;ratioP1;P1;durP2;ratioP2;P2;SDS_P1;SDS_P2;PMS_P1;PMS_P2;Temp;Humidity;BMP_temperature;BMP_pressure;BME280_temperature;BME280_humidity;BME280_pressure;Samples;Min_cycle;Max_cycle;Signal;HPM_P1;HPM_P2
2023/04/03 00:01:02;;;;;;;2.00;1.80;;;3.70;99.90;;;;;;5102620;28;20513;-77
2023/04/03 00:03:29;;;;;;;1.50;1.40;;;3.60;99.90;;;;;;5094491;28;20972;-77
2023/04/03 00:05:57;;;;;;;2.50;1.87;;;3.50;99.90;;;;;;5102848;28;20539;-79
2023/04/03 00:08:24;;;;;;;2.20;1.90;;;3.60;99.90;;;;;;5107437;28;20492;-77
2023/04/03 00:10:52;;;;;;;2.23;2.03;;;3.60;99.90;;;;;;5104265;28;20470;-79
2023/04/03 00:13:19;;;;;;;3.30;2.43;;;3.50;99.90;;;;;;5107676;28;20454;-77
2023/04/03 00:15:46;;;;;;;4.30;2.80;;;3.50;99.90;;;;;;5110372;27;21302;-76
2023/04/03 00:18:13;;;;;;;4.87;2.77;;;3.60;99.90;;;;;;5109267;28;20454;-76
2023/04/03 00:20:40;;;;;;;5.33;2.50;;;3.50;99.90;;;;;;5104641;28;20552;-78
2023/04/03 00:23:08;;;;;;;2.53;2.33;;;3.50;99.90;;;;;;5104308;28;20458;-77
2023/04/03 00:25:36;;;;;;;3.00;2.80;;;3.50;99.90;;;;;;5103327;28;21162;-76
2023/04/03 00:28:04;;;;;;;3.67;2.50;;;3.50;99.90;;;;;;5109063;28;20546;-76
2023/04/03 00:30:32;;;;;;;2.17;2.07;;;3.50;99.90;;;;;;5111513;28;20495;-77
2023/04/03 00:33:00;;;;;;;2.50;2.10;;;3.50;99.90;;;;;;5106029;28;20459;-76
2023/04/03 00:35:27;;;;;;;2.20;2.00;;;3.50;99.90;;;;;;5109521;28;20469;-77
2023/04/03 00:37:55;;;;;;;4.40;3.20;;;3.50;99.90;;;;;;5110454;28;21154;-77
2023/04/03 00:40:25;;;;;;;5.70;2.40;;;3.50;99.90;;;;;;5100716;28;20478;-78
2023/04/03 00:42:57;;;;;;;2.70;2.30;;;3.60;99.90;;;;;;5108577;28;20457;-78
2023/04/03 00:45:31;;;;;;;2.90;2.60;;;3.70;99.90;;;;;;5104673;28;20868;-78
2023/04/03 00:48:01;;;;;;;2.10;1.80;;;3.60;99.90;;;;;;5109976;28;20499;-77
2023/04/03 00:50:30;;;;;;;2.90;2.63;;;3.50;99.90;;;;;;5099407;28;20954;-77
2023/04/03 00:52:58;;;;;;;2.70;2.30;;;3.40;99.90;;;;;;5101706;28;20495;-77
2023/04/03 00:55:26;;;;;;;2.10;1.80;;;3.50;99.90;;;;;;5105419;28;20535;-78
2023/04/03 00:57:54;;;;;;;2.90;2.00;;;3.50;99.90;;;;;;5108703;28;20461;-77
2023/04/03 01:00:23;;;;;;;2.43;2.23;;;3.50;99.90;;;;;;5103427;28;20487;-77
2023/04/03 01:02:50;;;;;;;2.50;2.30;;;3.50;99.90;;;;;;5108364;28;20985;-77
2023/04/03 01:05:18;;;;;;;2.83;2.33;;;3.40;99.90;;;;;;5107914;28;20438;-76
2023/04/03 01:07:46;;;;;;;2.87;2.67;;;3.40;99.90;;;;;;5100204;28;20472;-78
2023/04/03 01:10:16;;;;;;;3.60;3.20;;;3.40;99.90;;;;;;5102399;28;20508;-77
2023/04/03 01:12:45;;;;;;;3.00;2.17;;;3.40;99.90;;;;;;5098481;28;21198;-76
2023/04/03 01:15:15;;;;;;;5.23;2.20;;;3.40;99.90;;;;;;5105221;28;20519;-77
2023/04/03 01:17:44;;;;;;;2.37;2.17;;;3.40;99.90;;;;;;5106281;28;20470;-77
2023/04/03 01:20:50;;;;;;;2.43;2.20;;;3.40;99.90;;;;;;5106779;28;20486;-76
2023/04/03 01:23:37;;;;;;;2.83;2.63;;;3.40;99.90;;;;;;5102144;28;20466;-76
2023/04/03 01:26:05;;;;;;;2.77;2.57;;;3.30;99.90;;;;;;5099808;28;20466;-77
2023/04/03 01:28:35;;;;;;;1.80;1.53;;;3.40;99.90;;;;;;5107712;28;20545;-76
2023/04/03 01:31:08;;;;;;;2.10;1.90;;;3.40;99.90;;;;;;5104366;28;20550;-77
2023/04/03 01:33:38;;;;;;;7.80;2.27;;;3.40;99.90;;;;;;5107686;28;20466;-76
2023/04/03 01:36:06;;;;;;;2.90;1.70;;;3.40;99.90;;;;;;5107315;28;20467;-76
2023/04/03 01:38:33;;;;;;;2.67;2.47;;;3.40;99.90;;;;;;5106297;28;20470;-78
2023/04/03 01:41:00;;;;;;;2.80;2.60;;;3.40;99.90;;;;;;5107824;28;20539;-78
2023/04/03 01:43:27;;;;;;;2.47;2.27;;;3.40;99.90;;;;;;5105225;28;20451;-78
2023/04/03 01:45:54;;;;;;;4.00;2.30;;;3.40;99.90;;;;;;5106102;28;20519;-77
2023/04/03 01:48:22;;;;;;;2.90;2.70;;;3.30;99.90;;;;;;5107991;28;20473;-77
2023/04/03 01:50:50;;;;;;;2.07;1.87;;;3.30;99.90;;;;;;5105797;28;20539;-76
2023/04/03 01:53:17;;;;;;;1.83;1.73;;;3.30;99.90;;;;;;5105895;28;20473;-78
2023/04/03 01:55:44;;;;;;;2.07;1.87;;;3.30;99.90;;;;;;5106016;28;20462;-77
2023/04/03 01:58:11;;;;;;;2.17;2.00;;;3.30;99.90;;;;;;5106042;28;20458;-78
2023/04/03 02:00:38;;;;;;;2.43;2.23;;;3.30;99.90;;;;;;5097759;28;20610;-77
2023/04/03 02:03:06;;;;;;;2.67;1.90;;;3.30;99.90;;;;;;5105798;28;20459;-78
2023/04/03 02:05:33;;;;;;;2.17;1.93;;;3.30;99.90;;;;;;5103444;28;20482;-77
2023/04/03 02:08:02;;;;;;;4.20;2.87;;;3.30;99.90;;;;;;5107690;28;20503;-77
2023/04/03 02:10:29;;;;;;;3.10;2.90;;;3.20;99.90;;;;;;5105595;28;21019;-76
2023/04/03 02:12:56;;;;;;;2.60;2.20;;;3.20;99.90;;;;;;5106445;28;20462;-77
2023/04/03 02:15:23;;;;;;;2.43;2.23;;;3.20;99.90;;;;;;5105241;28;20463;-78
2023/04/03 02:17:50;;;;;;;2.40;1.00;;;3.20;99.90;;;;;;5107723;28;20527;-77
2023/04/03 02:20:17;;;;;;;1.90;1.67;;;3.20;99.90;;;;;;5107594;28;20486;-76
2023/04/03 02:22:44;;;;;;;2.10;1.50;;;3.10;99.90;;;;;;5107906;28;20530;-77
2023/04/03 02:25:12;;;;;;;2.60;2.27;;;3.10;99.90;;;;;;5110036;28;20523;-76
2023/04/03 02:27:39;;;;;;;2.57;1.80;;;3.20;99.90;;;;;;5112092;28;20488;-76
2023/04/03 02:30:09;;;;;;;2.83;2.13;;;3.20;99.90;;;;;;5108508;28;20467;-76
2023/04/03 02:32:36;;;;;;;1.90;1.53;;;3.10;99.90;;;;;;5095839;28;20465;-77
2023/04/03 02:35:03;;;;;;;2.50;1.87;;;3.20;99.90;;;;;;5101627;28;20846;-76
2023/04/03 02:37:30;;;;;;;1.70;1.60;;;3.20;99.90;;;;;;5100129;28;20496;-76
2023/04/03 02:39:57;;;;;;;2.10;1.53;;;3.10;99.90;;;;;;5100435;28;20455;-77
2023/04/03 02:42:26;;;;;;;1.10;1.00;;;3.20;99.90;;;;;;5102544;28;20446;-76
2023/04/03 02:44:53;;;;;;;1.37;1.10;;;3.20;99.90;;;;;;5097942;28;20470;-76
2023/04/03 02:47:19;;;;;;;1.70;1.47;;;3.20;99.90;;;;;;5103043;28;20545;-76
2023/04/03 02:49:46;;;;;;;2.10;1.80;;;3.20;99.90;;;;;;5093345;28;20446;-75
2023/04/03 02:52:14;;;;;;;3.33;1.67;;;3.30;99.90;;;;;;5097687;28;20512;-76
2023/04/03 02:54:41;;;;;;;1.83;1.37;;;3.20;99.90;;;;;;5097951;28;20543;-76
2023/04/03 02:57:08;;;;;;;3.50;1.67;;;3.10;99.90;;;;;;5103312;28;21187;-77
2023/04/03 02:59:40;;;;;;;4.37;1.70;;;3.20;99.90;;;;;;5102281;28;20583;-76
2023/04/03 03:02:07;;;;;;;3.33;1.27;;;3.20;99.90;;;;;;5105167;28;20510;-76
2023/04/03 03:04:34;;;;;;;3.40;1.83;;;3.20;99.90;;;;;;5103614;28;20466;-76
2023/04/03 03:07:01;;;;;;;2.07;1.37;;;3.20;99.90;;;;;;5102332;28;20464;-76
2023/04/03 03:09:29;;;;;;;1.40;1.23;;;3.20;99.90;;;;;;5101225;28;20455;-76
2023/04/03 03:11:56;;;;;;;1.70;1.60;;;3.30;99.90;;;;;;5099138;28;20471;-77
2023/04/03 03:14:23;;;;;;;1.80;1.70;;;3.20;99.90;;;;;;5106231;28;20531;-76
2023/04/03 03:16:51;;;;;;;4.50;1.67;;;3.20;99.90;;;;;;5097848;28;20876;-76
2023/04/03 03:19:18;;;;;;;1.70;1.47;;;3.20;99.90;;;;;;5098107;28;20447;-77
2023/04/03 03:21:45;;;;;;;2.60;2.27;;;3.20;99.90;;;;;;5099647;28;21304;-76
2023/04/03 03:24:12;;;;;;;2.30;1.70;;;3.20;99.90;;;;;;5095281;28;20940;-78
2023/04/03 03:26:39;;;;;;;4.77;2.10;;;3.20;99.90;;;;;;5101165;28;20559;-76
2023/04/03 03:29:06;;;;;;;2.50;1.63;;;3.20;99.90;;;;;;5104726;28;20948;-77
2023/04/03 03:31:33;;;;;;;1.43;1.23;;;3.30;99.90;;;;;;5100371;28;21340;-78
2023/04/03 03:34:02;;;;;;;2.73;2.00;;;3.20;99.90;;;;;;5100804;28;21230;-77
2023/04/03 03:36:29;;;;;;;2.70;2.00;;;3.10;99.90;;;;;;5094294;28;20530;-76
2023/04/03 03:38:56;;;;;;;1.83;1.73;;;3.10;99.90;;;;;;5098894;28;20536;-76
2023/04/03 03:41:22;;;;;;;2.80;2.00;;;3.00;99.90;;;;;;5100159;28;20914;-77
2023/04/03 03:43:50;;;;;;;2.70;2.00;;;3.10;99.90;;;;;;5099636;28;21027;-78
2023/04/03 03:46:17;;;;;;;2.00;1.53;;;3.00;99.90;;;;;;5095782;28;20447;-76
2023/04/03 03:48:44;;;;;;;1.40;1.30;;;3.00;99.90;;;;;;5097574;28;20589;-77
2023/04/03 03:51:12;;;;;;;2.03;1.87;;;3.00;99.90;;;;;;5102069;28;20462;-76
2023/04/03 03:53:40;;;;;;;1.60;1.50;;;3.00;99.90;;;;;;5105892;28;20820;-78
2023/04/03 03:56:07;;;;;;;3.10;1.80;;;3.10;99.90;;;;;;5106408;28;20557;-78
2023/04/03 03:58:34;;;;;;;3.10;1.83;;;3.00;99.90;;;;;;5098212;28;20470;-76
2023/04/03 04:01:02;;;;;;;2.03;1.60;;;3.10;99.90;;;;;;5097947;28;20485;-76
2023/04/03 04:03:29;;;;;;;1.37;1.27;;;3.00;99.90;;;;;;5105667;28;20505;-78
2023/04/03 04:05:56;;;;;;;3.70;1.73;;;2.90;99.90;;;;;;5099564;28;20468;-77
2023/04/03 04:08:25;;;;;;;2.43;1.53;;;3.00;99.90;;;;;;5099095;28;20472;-79
2023/04/03 04:10:52;;;;;;;2.40;1.47;;;3.00;99.90;;;;;;5098786;28;20486;-78
2023/04/03 04:13:19;;;;;;;1.70;1.57;;;3.00;99.90;;;;;;5099657;28;20474;-77
2023/04/03 04:15:47;;;;;;;1.77;1.67;;;3.00;99.90;;;;;;5106005;28;20466;-78
2023/04/03 04:18:14;;;;;;;5.60;1.63;;;3.00;99.90;;;;;;5108087;28;20523;-79
2023/04/03 04:20:41;;;;;;;1.40;1.23;;;3.00;99.90;;;;;;5092868;28;20564;-79
2023/04/03 04:23:08;;;;;;;2.07;1.87;;;2.90;99.90;;;;;;5094494;28;21116;-78
2023/04/03 04:25:36;;;;;;;4.70;1.80;;;2.90;99.90;;;;;;5095393;28;20459;-79
2023/04/03 04:28:03;;;;;;;1.77;1.67;;;3.00;99.90;;;;;;5097256;28;20987;-78
2023/04/03 04:30:30;;;;;;;2.33;1.80;;;3.00;99.90;;;;;;5095230;28;21018;-78
2023/04/03 04:32:57;;;;;;;2.10;2.00;;;3.00;99.90;;;;;;5102222;28;20458;-78
2023/04/03 04:35:24;;;;;;;3.53;1.90;;;3.00;99.90;;;;;;5098035;28;21059;-79
2023/04/03 04:37:51;;;;;;;2.03;1.40;;;2.90;99.90;;;;;;5103834;28;20458;-77
2023/04/03 04:40:18;;;;;;;2.03;1.70;;;3.00;99.90;;;;;;5103117;28;20843;-78
2023/04/03 04:42:46;;;;;;;4.30;1.70;;;2.90;99.90;;;;;;5096679;28;20443;-78
2023/04/03 04:45:14;;;;;;;1.67;1.57;;;3.00;99.90;;;;;;5100124;28;20515;-77
2023/04/03 04:47:41;;;;;;;2.90;2.47;;;3.00;99.90;;;;;;5098445;28;20462;-78
2023/04/03 04:50:09;;;;;;;2.13;1.93;;;3.00;99.90;;;;;;5099565;28;20829;-78
2023/04/03 04:52:36;;;;;;;2.43;1.73;;;3.00;99.90;;;;;;5100826;28;20458;-77
2023/04/03 04:55:04;;;;;;;2.23;2.13;;;3.00;99.90;;;;;;5103031;28;20466;-78
2023/04/03 04:57:30;;;;;;;5.40;2.03;;;2.90;99.90;;;;;;5098369;27;20917;-77
2023/04/03 04:59:59;;;;;;;5.20;3.47;;;3.00;99.90;;;;;;5106290;27;20465;-78
2023/04/03 05:02:27;;;;;;;2.30;1.80;;;3.00;99.90;;;;;;5097913;27;20556;-79
2023/04/03 05:04:54;;;;;;;1.90;1.80;;;3.00;99.90;;;;;;5099339;28;21000;-77
2023/04/03 05:07:21;;;;;;;2.13;1.70;;;3.00;99.90;;;;;;5106156;28;20462;-78
2023/04/03 05:09:48;;;;;;;4.50;2.03;;;3.00;99.90;;;;;;5108221;28;20446;-82
2023/04/03 05:12:15;;;;;;;2.90;2.00;;;3.00;99.90;;;;;;5105544;28;20515;-79
2023/04/03 05:14:42;;;;;;;2.30;2.00;;;3.00;99.90;;;;;;5106727;28;20451;-76
2023/04/03 05:17:10;;;;;;;3.00;1.93;;;3.00;99.90;;;;;;5108416;28;20950;-76
2023/04/03 05:19:37;;;;;;;2.13;1.43;;;3.00;99.90;;;;;;5108227;28;21040;-76
2023/04/03 05:22:04;;;;;;;1.57;1.47;;;3.10;99.90;;;;;;5096729;28;20625;-76
2023/04/03 05:24:31;;;;;;;1.73;1.60;;;3.10;99.90;;;;;;5108722;28;20474;-76
2023/04/03 05:26:58;;;;;;;1.20;1.10;;;3.00;99.90;;;;;;5105445;28;21051;-77
2023/04/03 05:29:25;;;;;;;2.43;2.00;;;2.90;99.90;;;;;;5108808;28;20499;-79
2023/04/03 05:31:52;;;;;;;3.20;1.77;;;3.00;99.90;;;;;;5105477;28;20519;-76
2023/04/03 05:34:20;;;;;;;3.97;2.70;;;3.10;99.90;;;;;;5107382;28;20489;-77
2023/04/03 05:36:47;;;;;;;3.70;2.33;;;3.20;99.90;;;;;;5111544;27;20496;-78
2023/04/03 05:39:14;;;;;;;8.03;3.00;;;3.20;99.90;;;;;;5109978;27;20524;-76
2023/04/03 05:41:41;;;;;;;1.80;1.63;;;3.20;99.90;;;;;;5107578;28;20478;-79
2023/04/03 05:44:08;;;;;;;3.40;1.30;;;3.20;99.90;;;;;;5107622;28;20462;-77
2023/04/03 05:46:35;;;;;;;2.63;2.43;;;3.20;99.90;;;;;;5102207;28;20471;-76
2023/04/03 05:49:02;;;;;;;2.53;2.30;;;3.20;99.90;;;;;;5101775;28;20463;-86
2023/04/03 05:51:35;;;;;;;2.40;2.20;;;3.30;99.90;;;;;;5108687;28;20447;-78
2023/04/03 05:54:07;;;;;;;3.60;2.70;;;3.30;99.90;;;;;;5107384;28;20515;-78
2023/04/03 05:56:34;;;;;;;1.83;1.73;;;3.30;99.90;;;;;;5105749;28;20458;-76
2023/04/03 05:59:01;;;;;;;2.93;2.47;;;3.30;99.90;;;;;;5105614;28;21062;-76
2023/04/03 06:01:28;;;;;;;2.63;2.37;;;3.30;99.90;;;;;;5095092;28;21010;-76
2023/04/03 06:03:55;;;;;;;3.80;2.90;;;3.30;99.90;;;;;;5100751;28;20462;-77
2023/04/03 06:06:23;;;;;;;2.27;1.90;;;3.30;99.90;;;;;;5100430;28;20526;-80
2023/04/03 06:08:51;;;;;;;2.73;2.17;;;3.40;99.90;;;;;;5097202;28;20487;-76
2023/04/03 06:11:19;;;;;;;1.60;1.50;;;3.40;99.90;;;;;;5110037;28;20450;-78
2023/04/03 06:13:46;;;;;;;1.93;1.70;;;3.40;99.90;;;;;;5111488;28;20462;-77
2023/04/03 06:16:15;;;;;;;3.60;1.97;;;3.40;99.90;;;;;;5114190;28;20462;-76
2023/04/03 06:18:42;;;;;;;3.80;2.27;;;3.50;99.90;;;;;;5119912;28;20478;-76
2023/04/03 06:21:09;;;;;;;5.20;2.57;;;3.40;99.90;;;;;;5109898;28;20491;-76
2023/04/03 06:23:36;;;;;;;1.97;1.70;;;3.50;99.90;;;;;;5106377;28;20641;-77
2023/04/03 06:26:05;;;;;;;3.33;2.93;;;3.50;99.90;;;;;;5092619;28;20448;-76
2023/04/03 06:28:32;;;;;;;2.80;2.47;;;3.50;99.90;;;;;;5099520;28;20470;-75
2023/04/03 06:30:59;;;;;;;2.03;1.57;;;3.40;99.90;;;;;;5107139;28;20442;-76
2023/04/03 06:33:26;;;;;;;1.47;1.33;;;3.50;99.90;;;;;;5108730;27;20443;-80
2023/04/03 06:35:58;;;;;;;1.10;1.00;;;3.40;99.90;;;;;;5098423;28;20832;-78
2023/04/03 06:38:25;;;;;;;2.70;1.10;;;3.50;99.90;;;;;;5102430;28;20819;-75
2023/04/03 06:40:52;;;;;;;1.63;1.13;;;3.50;99.90;;;;;;5106344;28;20471;-78
2023/04/03 06:43:21;;;;;;;2.30;1.03;;;3.60;99.90;;;;;;5103967;28;21040;-76
2023/04/03 06:45:48;;;;;;;1.33;1.00;;;3.70;99.90;;;;;;5096011;28;20443;-76
2023/04/03 06:48:15;;;;;;;1.50;1.37;;;3.80;99.90;;;;;;5096161;28;20466;-77
2023/04/03 06:50:42;;;;;;;2.70;1.50;;;3.90;99.90;;;;;;5107252;28;21029;-78
2023/04/03 06:53:10;;;;;;;1.77;1.40;;;4.20;99.90;;;;;;5107035;28;20450;-77
2023/04/03 06:55:37;;;;;;;1.67;1.00;;;4.30;99.90;;;;;;5106497;28;20502;-77
2023/04/03 06:58:05;;;;;;;4.27;1.17;;;4.30;99.90;;;;;;5107331;28;20443;-78
2023/04/03 07:00:33;;;;;;;1.03;1.03;;;4.40;99.90;;;;;;5093386;28;20504;-78
2023/04/03 07:03:00;;;;;;;1.53;0.90;;;4.30;99.90;;;;;;5101552;28;20497;-78
2023/04/03 07:05:27;;;;;;;1.43;1.20;;;4.40;99.90;;;;;;5098787;28;20446;-80
2023/04/03 07:07:55;;;;;;;1.60;1.50;;;4.40;99.90;;;;;;5101792;28;20875;-78
2023/04/03 07:10:22;;;;;;;4.13;2.30;;;4.60;99.90;;;;;;5105871;28;20854;-80
2023/04/03 07:12:49;;;;;;;2.07;1.33;;;4.60;99.90;;;;;;5107702;28;20512;-77
2023/04/03 07:15:16;;;;;;;1.70;1.50;;;4.70;99.90;;;;;;5107408;28;20443;-77
2023/04/03 07:17:44;;;;;;;1.90;1.67;;;4.50;99.90;;;;;;5106110;28;20539;-78
2023/04/03 07:20:12;;;;;;;5.20;1.83;;;4.70;99.90;;;;;;5106951;28;20439;-78
2023/04/03 07:22:39;;;;;;;2.97;2.07;;;4.50;99.90;;;;;;5103609;28;20489;-76
2023/04/03 07:25:07;;;;;;;4.37;2.37;;;4.50;99.90;;;;;;5105093;28;20442;-79
2023/04/03 07:27:34;;;;;;;1.63;1.43;;;4.60;99.90;;;;;;5106128;28;20490;-78
2023/04/03 07:30:01;;;;;;;3.53;1.60;;;4.70;99.90;;;;;;5105289;28;20446;-79
2023/04/03 07:32:30;;;;;;;4.13;2.00;;;4.60;99.90;;;;;;5092684;28;20470;-79
2023/04/03 07:34:58;;;;;;;2.87;1.70;;;4.70;99.90;;;;;;5098388;28;20438;-78
2023/04/03 07:37:25;;;;;;;1.30;1.23;;;4.70;99.90;;;;;;5102604;28;20442;-78
2023/04/03 07:39:52;;;;;;;3.13;2.03;;;4.70;99.90;;;;;;5098373;28;20948;-78
2023/04/03 07:42:19;;;;;;;2.87;1.43;;;4.70;99.90;;;;;;5106553;28;20566;-79
2023/04/03 07:44:46;;;;;;;2.90;2.10;;;4.70;99.90;;;;;;5106410;28;20495;-78
2023/04/03 07:47:16;;;;;;;3.13;1.93;;;4.80;99.90;;;;;;5097510;28;20463;-79
2023/04/03 07:49:43;;;;;;;1.73;1.63;;;4.90;99.90;;;;;;5101980;28;20459;-79
2023/04/03 07:52:12;;;;;;;1.87;1.77;;;4.80;99.90;;;;;;5105964;28;20443;-78
2023/04/03 07:54:39;;;;;;;1.60;1.20;;;4.60;99.90;;;;;;5099774;28;20463;-78
2023/04/03 07:57:06;;;;;;;0.80;0.80;;;4.70;99.90;;;;;;5106844;28;20530;-77
2023/04/03 07:59:33;;;;;;;1.27;0.70;;;4.70;99.90;;;;;;5106579;28;20473;-75
2023/04/03 08:02:00;;;;;;;1.13;1.03;;;4.50;99.90;;;;;;5103445;28;20845;-80
2023/04/03 08:04:27;;;;;;;2.70;0.87;;;4.50;99.90;;;;;;5107090;28;21123;-78
2023/04/03 08:06:54;;;;;;;1.87;1.17;;;4.70;99.90;;;;;;5105024;28;20451;-78
2023/04/03 08:09:22;;;;;;;2.53;1.27;;;4.70;99.90;;;;;;5104342;28;20462;-76
2023/04/03 08:11:52;;;;;;;2.00;1.90;;;4.60;99.90;;;;;;5104426;28;20458;-78
2023/04/03 08:14:20;;;;;;;3.63;1.67;;;4.40;99.90;;;;;;5119461;28;20502;-79
2023/04/03 08:16:48;;;;;;;3.63;3.13;;;4.30;99.90;;;;;;5103109;28;20442;-78
2023/04/03 08:19:17;;;;;;;2.70;2.50;;;4.40;99.90;;;;;;5102781;28;20450;-78
2023/04/03 08:21:45;;;;;;;5.10;4.57;;;4.10;99.90;;;;;;5098517;28;21029;-76
2023/04/03 08:24:12;;;;;;;7.93;5.67;;;3.80;99.90;;;;;;5106856;28;20450;-76
2023/04/03 08:26:40;;;;;;;5.60;4.37;;;3.60;99.90;;;;;;5098476;28;20530;-76
2023/04/03 08:29:07;;;;;;;10.87;7.23;;;3.40;99.90;;;;;;5105418;28;20942;-78
2023/04/03 08:31:34;;;;;;;10.03;8.23;;;3.40;99.90;;;;;;5093647;28;20447;-79
2023/04/03 08:34:01;;;;;;;10.63;7.43;;;3.30;99.90;;;;;;5094820;28;20444;-78
2023/04/03 08:36:30;;;;;;;8.10;6.40;;;3.50;99.90;;;;;;5109779;28;20466;-83
2023/04/03 08:38:58;;;;;;;9.27;8.00;;;3.40;99.90;;;;;;5110127;28;20502;-77
2023/04/03 08:41:31;;;;;;;1.90;1.67;;;3.40;99.90;;;;;;5109352;28;20434;-79
2023/04/03 08:44:07;;;;;;;5.33;1.70;;;3.50;99.90;;;;;;5107077;28;20470;-76
2023/04/03 08:46:46;;;;;;;1.63;1.03;;;3.60;99.90;;;;;;5104636;28;20439;-76
2023/04/03 08:49:22;;;;;;;1.47;1.10;;;3.70;99.90;;;;;;5110596;28;20438;-76
2023/04/03 08:51:50;;;;;;;1.37;1.10;;;3.50;99.90;;;;;;5109252;28;20549;-78
2023/04/03 08:54:28;;;;;;;1.10;1.03;;;3.40;99.90;;;;;;5109735;28;20594;-78
2023/04/03 08:56:56;;;;;;;2.10;1.60;;;3.20;99.90;;;;;;5110169;28;20534;-78
2023/04/03 08:59:29;;;;;;;1.53;1.43;;;3.10;99.90;;;;;;5102568;28;20932;-78
2023/04/03 09:01:58;;;;;;;4.23;1.80;;;3.00;99.90;;;;;;5102736;28;20567;-76
2023/04/03 09:04:28;;;;;;;1.90;1.50;;;3.10;99.90;;;;;;5108588;28;20443;-77
2023/04/03 09:07:01;;;;;;;2.30;1.20;;;3.10;99.90;;;;;;5104003;28;20455;-77
2023/04/03 09:09:35;;;;;;;1.03;0.87;;;3.10;99.90;;;;;;5104380;28;20502;-79
2023/04/03 09:12:11;;;;;;;1.10;0.80;;;3.20;99.90;;;;;;5109499;28;20476;-77
2023/04/03 09:14:42;;;;;;;2.00;1.80;;;3.30;99.90;;;;;;5108792;28;20946;-78
2023/04/03 09:17:16;;;;;;;1.37;1.27;;;3.60;99.90;;;;;;5106244;28;20994;-77
2023/04/03 09:19:51;;;;;;;1.30;0.97;;;3.80;99.90;;;;;;5108986;28;20442;-77
2023/04/03 09:22:22;;;;;;;2.70;0.87;;;3.80;99.90;;;;;;5109527;28;20481;-78
2023/04/03 09:24:56;;;;;;;2.60;1.00;;;4.20;99.90;;;;;;5107848;28;20462;-78
2023/04/03 09:27:23;;;;;;;3.80;0.70;;;4.50;99.90;;;;;;5106869;28;20469;-80
2023/04/03 09:29:54;;;;;;;4.73;3.67;;;4.60;99.90;;;;;;5108096;28;20837;-77
2023/04/03 09:32:26;;;;;;;2.97;1.30;;;4.70;99.90;;;;;;5100467;28;20451;-77
2023/04/03 09:34:55;;;;;;;1.70;1.00;;;4.80;99.90;;;;;;5109334;28;20446;-80
2023/04/03 09:37:40;;;;;;;1.47;1.00;;;4.90;99.90;;;;;;5094732;28;20950;-77
2023/04/03 09:40:34;;;;;;;5.93;1.17;;;4.90;99.90;;;;;;5102844;28;21125;-88
2023/04/03 09:43:03;;;;;;;2.10;1.13;;;4.90;99.90;;;;;;5108489;28;20486;-79
2023/04/03 09:45:34;;;;;;;2.00;1.13;;;4.90;99.90;;;;;;5102995;28;20459;-77
2023/04/03 09:48:17;;;;;;;1.80;1.33;;;4.90;99.90;;;;;;5105436;28;20518;-78
2023/04/03 09:50:59;;;;;;;0.83;0.83;;;4.90;99.90;;;;;;5103288;28;20458;-78
2023/04/03 09:53:36;;;;;;;1.30;1.20;;;4.90;99.90;;;;;;5097156;28;20459;-78
2023/04/03 09:56:06;;;;;;;1.43;1.07;;;4.90;99.90;;;;;;5107449;28;20463;-77
2023/04/03 09:58:37;;;;;;;3.33;1.23;;;4.90;99.90;;;;;;5106716;28;20456;-76
2023/04/03 10:01:06;;;;;;;1.07;0.97;;;4.90;99.90;;;;;;5105708;28;21141;-77
2023/04/03 10:03:35;;;;;;;0.80;0.60;;;5.10;99.90;;;;;;5101225;28;20922;-77
2023/04/03 10:06:03;;;;;;;0.87;0.87;;;4.80;98.70;;;;;;5107439;28;20529;-80
2023/04/03 10:08:32;;;;;;;3.57;0.77;;;5.00;99.50;;;;;;5116204;28;20453;-76
2023/04/03 10:11:16;;;;;;;0.80;0.80;;;5.10;98.50;;;;;;5113063;28;20511;-76
2023/04/03 10:13:59;;;;;;;1.60;1.50;;;5.30;99.10;;;;;;5099756;28;20451;-81
2023/04/03 10:16:33;;;;;;;1.10;0.80;;;5.60;98.40;;;;;;5107422;28;20447;-77
2023/04/03 10:19:28;;;;;;;1.03;0.90;;;5.40;98.50;;;;;;5097288;28;20978;-78
2023/04/03 10:22:00;;;;;;;1.00;0.90;;;5.30;96.50;;;;;;5099043;28;20446;-77
2023/04/03 10:24:36;;;;;;;1.60;0.80;;;5.20;96.70;;;;;;5097301;28;20490;-75
2023/04/03 10:27:09;;;;;;;1.23;0.70;;;5.20;96.60;;;;;;5098580;28;20496;-75
2023/04/03 10:29:41;;;;;;;2.50;1.10;;;5.10;95.70;;;;;;5101314;28;20875;-78
2023/04/03 10:32:34;;;;;;;0.83;0.70;;;5.10;97.10;;;;;;5100422;28;20499;-75
2023/04/03 10:35:08;;;;;;;1.20;1.10;;;5.20;95.20;;;;;;5092765;28;20459;-76
2023/04/03 10:37:48;;;;;;;1.43;1.27;;;5.20;93.80;;;;;;5105198;28;20531;-80
2023/04/03 10:40:32;;;;;;;4.60;0.90;;;5.10;94.40;;;;;;5104334;28;20515;-76
2023/04/03 10:43:07;;;;;;;1.10;1.00;;;5.50;93.40;;;;;;5107744;28;20491;-75
2023/04/03 10:45:55;;;;;;;0.97;0.90;;;5.60;92.50;;;;;;5107091;28;20530;-79
2023/04/03 10:48:36;;;;;;;2.03;1.17;;;5.70;93.10;;;;;;5101888;28;20511;-78
2023/04/03 10:51:14;;;;;;;1.00;0.80;;;5.90;92.90;;;;;;5107717;28;20454;-80
2023/04/03 10:53:48;;;;;;;1.10;0.73;;;5.90;91.20;;;;;;5096873;28;20447;-79
2023/04/03 10:56:22;;;;;;;0.90;0.60;;;5.50;90.20;;;;;;5101540;28;20947;-75
2023/04/03 10:58:54;;;;;;;1.13;0.60;;;5.70;92.50;;;;;;5106854;28;20442;-77
2023/04/03 11:01:25;;;;;;;2.40;0.87;;;5.60;91.90;;;;;;5104406;28;20501;-76
2023/04/03 11:03:57;;;;;;;2.87;1.20;;;5.60;92.30;;;;;;5094599;28;20494;-75
2023/04/03 11:06:29;;;;;;;2.37;0.70;;;5.70;91.00;;;;;;5102590;28;20450;-80
2023/04/03 11:09:03;;;;;;;1.63;0.83;;;5.90;92.70;;;;;;5099433;28;20504;-79
2023/04/03 11:11:33;;;;;;;3.27;1.27;;;6.00;91.40;;;;;;5106446;28;20894;-80
2023/04/03 11:14:04;;;;;;;1.33;0.80;;;5.80;90.40;;;;;;5102472;28;20468;-76
2023/04/03 11:16:35;;;;;;;1.20;1.07;;;6.00;90.10;;;;;;5102815;28;20505;-76
2023/04/03 11:19:12;;;;;;;1.30;1.07;;;6.50;92.60;;;;;;5102678;28;20458;-76
2023/04/03 11:21:45;;;;;;;1.27;0.97;;;6.40;92.10;;;;;;5104280;28;20454;-79
2023/04/03 11:24:21;;;;;;;0.83;0.83;;;6.20;92.60;;;;;;5105725;28;20489;-76
2023/04/03 11:26:50;;;;;;;1.33;1.23;;;6.20;92.00;;;;;;5104524;28;20523;-79
2023/04/03 11:29:22;;;;;;;1.40;1.03;;;6.30;93.00;;;;;;5107369;28;20452;-76
2023/04/03 11:32:09;;;;;;;2.20;0.90;;;6.10;91.80;;;;;;5101793;28;20451;-78
2023/04/03 11:34:42;;;;;;;1.20;1.00;;;6.20;91.40;;;;;;5103265;28;20438;-77
2023/04/03 11:37:18;;;;;;;1.10;0.80;;;6.00;91.80;;;;;;5100768;28;20477;-78
2023/04/03 11:39:53;;;;;;;2.40;0.90;;;5.70;91.50;;;;;;5096109;28;20507;-76
2023/04/03 11:42:32;;;;;;;1.17;0.80;;;5.70;90.70;;;;;;5100165;28;20530;-78
2023/04/03 11:45:18;;;;;;;2.80;0.90;;;5.90;90.80;;;;;;5105578;28;20933;-77
2023/04/03 11:47:47;;;;;;;1.43;1.20;;;6.00;89.70;;;;;;5105520;28;21044;-79
2023/04/03 11:50:39;;;;;;;2.13;1.40;;;6.10;90.00;;;;;;5106418;28;20450;-78
2023/04/03 11:53:34;;;;;;;1.10;0.80;;;6.20;91.70;;;;;;5105733;28;20515;-81
2023/04/03 11:56:20;;;;;;;1.50;1.00;;;5.80;90.00;;;;;;5102767;28;20503;-77
2023/04/03 11:59:22;;;;;;;1.57;0.90;;;5.70;90.40;;;;;;5096931;28;20450;-78
2023/04/03 12:01:50;;;;;;;3.47;1.20;;;5.80;90.00;;;;;;5109450;28;20462;-77
2023/04/03 12:04:19;;;;;;;1.40;1.23;;;5.70;90.80;;;;;;5105531;28;20481;-77
2023/04/03 12:07:17;;;;;;;1.50;1.07;;;5.50;91.00;;;;;;5109455;28;20849;-76
2023/04/03 12:10:17;;;;;;;3.37;1.20;;;5.60;92.20;;;;;;5096187;28;20454;-77
2023/04/03 12:12:58;;;;;;;2.50;0.80;;;5.70;90.40;;;;;;5108776;28;20957;-77
2023/04/03 12:15:42;;;;;;;2.57;0.70;;;5.70;90.70;;;;;;5110331;28;20446;-78
2023/04/03 12:18:42;;;;;;;3.47;1.07;;;6.00;92.40;;;;;;5090538;28;21112;-78
2023/04/03 12:21:10;;;;;;;0.80;0.80;;;5.80;88.60;;;;;;5100243;28;20462;-77
2023/04/03 12:24:01;;;;;;;7.80;1.70;;;5.70;90.10;;;;;;5106586;28;20522;-77
2023/04/03 12:26:33;;;;;;;1.17;0.80;;;5.70;88.40;;;;;;5101570;28;20461;-80
2023/04/03 12:29:11;;;;;;;0.80;0.63;;;5.80;86.20;;;;;;5103920;28;20575;-80
2023/04/03 12:31:46;;;;;;;0.87;0.87;;;5.80;85.10;;;;;;5102908;28;20452;-79
2023/04/03 12:34:46;;;;;;;1.43;0.70;;;5.70;84.10;;;;;;5108748;28;20473;-77
2023/04/03 12:37:33;;;;;;;1.20;0.90;;;5.60;82.30;;;;;;5103265;28;20447;-78
2023/04/03 12:40:11;;;;;;;1.10;0.60;;;5.60;85.50;;;;;;5097100;28;20543;-77
2023/04/03 12:43:11;;;;;;;0.70;0.70;;;5.90;85.90;;;;;;5105630;28;21309;-76
2023/04/03 12:45:44;;;;;;;2.00;1.73;;;5.70;89.50;;;;;;5106168;28;20931;-77
2023/04/03 12:48:16;;;;;;;1.30;1.00;;;5.90;89.70;;;;;;5105330;28;20457;-79
2023/04/03 12:50:46;;;;;;;1.00;0.70;;;6.00;90.90;;;;;;5109341;28;20460;-75
2023/04/03 12:53:18;;;;;;;1.90;1.10;;;5.90;89.50;;;;;;5107420;28;20482;-77
2023/04/03 12:55:45;;;;;;;1.13;0.90;;;5.70;87.50;;;;;;5104358;28;20462;-81
2023/04/03 12:58:17;;;;;;;0.83;0.73;;;5.90;86.40;;;;;;5109878;28;20435;-78
2023/04/03 13:00:44;;;;;;;1.10;0.80;;;5.80;86.50;;;;;;5109426;28;20466;-77
2023/04/03 13:03:26;;;;;;;1.67;0.97;;;6.20;85.10;;;;;;5105413;28;20463;-80
2023/04/03 13:06:01;;;;;;;1.87;0.90;;;6.00;82.30;;;;;;5106159;28;20439;-76
2023/04/03 13:08:28;;;;;;;0.80;0.80;;;5.90;79.30;;;;;;5106714;28;20458;-77
2023/04/03 13:11:00;;;;;;;1.20;1.10;;;5.80;77.70;;;;;;5096044;28;20451;-77
2023/04/03 13:13:30;;;;;;;1.80;0.87;;;6.00;80.70;;;;;;5103242;28;20442;-76
2023/04/03 13:15:58;;;;;;;2.77;0.83;;;5.90;75.30;;;;;;5103508;28;20462;-77